sensor_id;sensor_type;location;lat;lon;timestamp;pressure;altitude;pressure_sealevel;temperature
61189;BMP280;47054;39.716;2.904;2022-09-20T00:00:43;100315.47;;;28.08
61189;BMP280;47054;39.716;2.904;2022-09-20T00:03:28;100307.28;;;28.08
61189;BMP280;47054;39.716;2.904;2022-09-20T00:06:18;100311.56;;;28.09
61189;BMP280;47054;39.716;2.904;2022-09-20T00:09:04;100312.41;;;28.06
61189;BMP280;47054;39.716;2.904;2022-09-20T00:11:52;100312.41;;;28.06
61189;BMP280;47054;39.716;2.904;2022-09-20T00:14:37;100310.91;;;28.05
61189;BMP280;47054;39.716;2.904;2022-09-20T00:17:21;100310.91;;;28.05
61189;BMP280;47054;39.716;2.904;2022-09-20T00:20:06;100304.69;;;28.04
61189;BMP280;47054;39.716;2.904;2022-09-20T00:22:51;100303.91;;;28.04
61189;BMP280;47054;39.716;2.904;2022-09-20T00:25:36;100307.09;;;28.02
61189;BMP280;47054;39.716;2.904;2022-09-20T00:28:20;100312.09;;;28.04
61189;BMP280;47054;39.716;2.904;2022-09-20T00:31:05;100312.09;;;28.04
61189;BMP280;47054;39.716;2.904;2022-09-20T00:33:55;100305.47;;;28.05
61189;BMP280;47054;39.716;2.904;2022-09-20T00:36:58;100302.41;;;28.03
61189;BMP280;47054;39.716;2.904;2022-09-20T00:39:42;100305.13;;;28.03
61189;BMP280;47054;39.716;2.904;2022-09-20T00:42:28;100302.41;;;28.03
61189;BMP280;47054;39.716;2.904;2022-09-20T00:51:04;100302.41;;;28.03
61189;BMP280;47054;39.716;2.904;2022-09-20T00:53:53;100309.47;;;28.00
61189;BMP280;47054;39.716;2.904;2022-09-20T00:56:40;100312.97;;;28.01
61189;BMP280;47054;39.716;2.904;2022-09-20T00:59:37;100316.47;;;28.01
61189;BMP280;47054;39.716;2.904;2022-09-20T01:02:25;100321.16;;;28.01
61189;BMP280;47054;39.716;2.904;2022-09-20T01:05:11;100320.09;;;27.98
61189;BMP280;47054;39.716;2.904;2022-09-20T01:07:57;100314.63;;;27.98
61189;BMP280;47054;39.716;2.904;2022-09-20T01:10:42;100318.09;;;27.99
61189;BMP280;47054;39.716;2.904;2022-09-20T01:13:27;100311.91;;;27.98
61189;BMP280;47054;39.716;2.904;2022-09-20T01:16:13;100314.31;;;27.96
61189;BMP280;47054;39.716;2.904;2022-09-20T01:19:02;100318.09;;;27.99
61189;BMP280;47054;39.716;2.904;2022-09-20T01:21:49;100310.38;;;27.97
61189;BMP280;47054;39.716;2.904;2022-09-20T01:24:47;100299.13;;;27.95
61189;BMP280;47054;39.716;2.904;2022-09-20T01:27:39;100308.84;;;27.96
61189;BMP280;47054;39.716;2.904;2022-09-20T01:30:30;100304.19;;;27.97
61189;BMP280;47054;39.716;2.904;2022-09-20T01:33:31;100305.69;;;27.98
61189;BMP280;47054;39.716;2.904;2022-09-20T01:36:41;100305.34;;;27.96
61189;BMP280;47054;39.716;2.904;2022-09-20T01:39:50;100307.78;;;27.94
61189;BMP280;47054;39.716;2.904;2022-09-20T01:42:43;100299.28;;;27.92
61189;BMP280;47054;39.716;2.904;2022-09-20T01:45:31;100305.47;;;27.92
61189;BMP280;47054;39.716;2.904;2022-09-20T01:48:28;100300.03;;;27.92
61189;BMP280;47054;39.716;2.904;2022-09-20T01:57:23;100291.97;;;27.89
61189;BMP280;47054;39.716;2.904;2022-09-20T02:00:17;100297.41;;;27.89
61189;BMP280;47054;39.716;2.904;2022-09-20T02:26:31;100282.53;;;27.81
61189;BMP280;47054;39.716;2.904;2022-09-20T02:30:08;100289.34;;;27.85
61189;BMP280;47054;39.716;2.904;2022-09-20T02:33:16;100281.28;;;27.82
61189;BMP280;47054;39.716;2.904;2022-09-20T02:39:14;100276.72;;;27.79
61189;BMP280;47054;39.716;2.904;2022-09-20T02:42:43;100283.72;;;27.80
61189;BMP280;47054;39.716;2.904;2022-09-20T02:48:58;100276.72;;;27.79
61189;BMP280;47054;39.716;2.904;2022-09-20T02:55:16;100279.59;;;27.75
61189;BMP280;47054;39.716;2.904;2022-09-20T03:25:50;100293.34;;;27.72
61189;BMP280;47054;39.716;2.904;2022-09-20T03:28:54;100292.56;;;27.71
61189;BMP280;47054;39.716;2.904;2022-09-20T03:31:56;100290.72;;;27.68
61189;BMP280;47054;39.716;2.904;2022-09-20T03:34:56;100297.28;;;27.71
61189;BMP280;47054;39.716;2.904;2022-09-20T03:46:45;100294.22;;;27.69
61189;BMP280;47054;39.716;2.904;2022-09-20T04:02:55;100294.03;;;27.63
61189;BMP280;47054;39.716;2.904;2022-09-20T04:09:37;100299.78;;;27.65
61189;BMP280;47054;39.716;2.904;2022-09-20T04:22:32;100311.25;;;27.60
61189;BMP280;47054;39.716;2.904;2022-09-20T04:25:20;100313.50;;;27.61
61189;BMP280;47054;39.716;2.904;2022-09-20T04:28:21;100309.16;;;27.64
61189;BMP280;47054;39.716;2.904;2022-09-20T04:31:22;100305.91;;;27.56
61189;BMP280;47054;39.716;2.904;2022-09-20T04:34:21;100305.44;;;27.58
61189;BMP280;47054;39.716;2.904;2022-09-20T04:37:35;100312.84;;;27.57
61189;BMP280;47054;39.716;2.904;2022-09-20T04:44:16;100311.66;;;27.58
61189;BMP280;47054;39.716;2.904;2022-09-20T04:50:33;100322.56;;;27.58
61189;BMP280;47054;39.716;2.904;2022-09-20T04:59:43;100315.16;;;27.59
61189;BMP280;47054;39.716;2.904;2022-09-20T05:02:58;100312.00;;;27.60
61189;BMP280;47054;39.716;2.904;2022-09-20T05:09:08;100310.88;;;27.58
61189;BMP280;47054;39.716;2.904;2022-09-20T05:15:40;100324.09;;;27.59
61189;BMP280;47054;39.716;2.904;2022-09-20T05:22:29;100318.28;;;27.57
61189;BMP280;47054;39.716;2.904;2022-09-20T05:28:45;100311.34;;;27.56
61189;BMP280;47054;39.716;2.904;2022-09-20T05:47:17;100328.59;;;27.53
61189;BMP280;47054;39.716;2.904;2022-09-20T05:56:36;100346.41;;;27.54
61189;BMP280;47054;39.716;2.904;2022-09-20T06:02:31;100354.69;;;27.51
61189;BMP280;47054;39.716;2.904;2022-09-20T06:18:26;100338.81;;;27.49
61189;BMP280;47054;39.716;2.904;2022-09-20T06:21:38;100343.50;;;27.49
61189;BMP280;47054;39.716;2.904;2022-09-20T06:24:34;100353.94;;;27.50
61189;BMP280;47054;39.716;2.904;2022-09-20T06:27:25;100360.13;;;27.51
61189;BMP280;47054;39.716;2.904;2022-09-20T06:30:19;100358.66;;;27.50
61189;BMP280;47054;39.716;2.904;2022-09-20T06:33:16;100360.91;;;27.51
61189;BMP280;47054;39.716;2.904;2022-09-20T06:36:21;100359.38;;;27.50
61189;BMP280;47054;39.716;2.904;2022-09-20T06:39:39;100355.94;;;27.50
61189;BMP280;47054;39.716;2.904;2022-09-20T06:42:45;100350.59;;;27.46
61189;BMP280;47054;39.716;2.904;2022-09-20T06:45:30;100358.28;;;27.48
61189;BMP280;47054;39.716;2.904;2022-09-20T06:48:15;100353.59;;;27.48
61189;BMP280;47054;39.716;2.904;2022-09-20T06:51:00;100364.50;;;27.48
61189;BMP280;47054;39.716;2.904;2022-09-20T06:53:44;100361.78;;;27.48
61189;BMP280;47054;39.716;2.904;2022-09-20T06:56:32;100361.38;;;27.50
61189;BMP280;47054;39.716;2.904;2022-09-20T06:59:20;100357.53;;;27.47
61189;BMP280;47054;39.716;2.904;2022-09-20T07:02:05;100355.94;;;27.50
61189;BMP280;47054;39.716;2.904;2022-09-20T07:04:50;100357.88;;;27.49
61189;BMP280;47054;39.716;2.904;2022-09-20T07:07:38;100359.84;;;27.49
61189;BMP280;47054;39.716;2.904;2022-09-20T07:10:26;100357.88;;;27.49
61189;BMP280;47054;39.716;2.904;2022-09-20T07:13:11;100361.38;;;27.50
61189;BMP280;47054;39.716;2.904;2022-09-20T07:16:02;100365.59;;;27.51
61189;BMP280;47054;39.716;2.904;2022-09-20T07:18:47;100372.28;;;27.50
61189;BMP280;47054;39.716;2.904;2022-09-20T07:21:32;100373.44;;;27.49
61189;BMP280;47054;39.716;2.904;2022-09-20T07:24:17;100379.66;;;27.49
61189;BMP280;47054;39.716;2.904;2022-09-20T07:27:02;100380.44;;;27.50
61189;BMP280;47054;39.716;2.904;2022-09-20T07:29:48;100387.06;;;27.49
61189;BMP280;47054;39.716;2.904;2022-09-20T07:32:32;100379.34;;;27.47
61189;BMP280;47054;39.716;2.904;2022-09-20T07:35:17;100384.34;;;27.49
61189;BMP280;47054;39.716;2.904;2022-09-20T07:38:01;100383.16;;;27.50
61189;BMP280;47054;39.716;2.904;2022-09-20T07:40:56;100380.53;;;27.46
61189;BMP280;47054;39.716;2.904;2022-09-20T07:43:41;100380.84;;;27.48
61189;BMP280;47054;39.716;2.904;2022-09-20T07:46:25;100390.97;;;27.48
61189;BMP280;47054;39.716;2.904;2022-09-20T07:49:10;100384.34;;;27.49
61189;BMP280;47054;39.716;2.904;2022-09-20T07:51:54;100391.75;;;27.48
61189;BMP280;47054;39.716;2.904;2022-09-20T07:54:39;100388.25;;;27.48
61189;BMP280;47054;39.716;2.904;2022-09-20T07:57:23;100390.56;;;27.49
61189;BMP280;47054;39.716;2.904;2022-09-20T08:00:10;100383.66;;;27.45
61189;BMP280;47054;39.716;2.904;2022-09-20T08:02:58;100390.22;;;27.47
61189;BMP280;47054;39.716;2.904;2022-09-20T08:05:43;100390.97;;;27.48
61189;BMP280;47054;39.716;2.904;2022-09-20T08:08:31;100394.47;;;27.48
61189;BMP280;47054;39.716;2.904;2022-09-20T08:11:19;100394.91;;;27.47
61189;BMP280;47054;39.716;2.904;2022-09-20T08:14:03;100399.13;;;27.48
61189;BMP280;47054;39.716;2.904;2022-09-20T08:16:48;100407.31;;;27.48
61189;BMP280;47054;39.716;2.904;2022-09-20T08:19:33;100401.13;;;27.47
61189;BMP280;47054;39.716;2.904;2022-09-20T08:22:18;100406.56;;;27.47
61189;BMP280;47054;39.716;2.904;2022-09-20T08:25:02;100407.31;;;27.48
61189;BMP280;47054;39.716;2.904;2022-09-20T08:27:52;100410.81;;;27.48
61189;BMP280;47054;39.716;2.904;2022-09-20T08:30:37;100408.53;;;27.47
61189;BMP280;47054;39.716;2.904;2022-09-20T08:33:22;100417.47;;;27.47
61189;BMP280;47054;39.716;2.904;2022-09-20T08:36:09;100417.47;;;27.47
61189;BMP280;47054;39.716;2.904;2022-09-20T08:38:55;100420.19;;;27.47
61189;BMP280;47054;39.716;2.904;2022-09-20T08:42:12;100423.25;;;27.49
61189;BMP280;47054;39.716;2.904;2022-09-20T08:45:01;100428.34;;;27.47
61189;BMP280;47054;39.716;2.904;2022-09-20T08:47:49;100424.84;;;27.47
61189;BMP280;47054;39.716;2.904;2022-09-20T08:50:36;100421.41;;;27.46
61189;BMP280;47054;39.716;2.904;2022-09-20T08:53:21;100426.84;;;27.46
61189;BMP280;47054;39.716;2.904;2022-09-20T08:56:05;100430.31;;;27.47
61189;BMP280;47054;39.716;2.904;2022-09-20T08:58:50;100426.38;;;27.48
61189;BMP280;47054;39.716;2.904;2022-09-20T09:01:36;100428.34;;;27.47
61189;BMP280;47054;39.716;2.904;2022-09-20T09:04:24;100433.81;;;27.47
61189;BMP280;47054;39.716;2.904;2022-09-20T09:07:17;100436.53;;;27.47
61189;BMP280;47054;39.716;2.904;2022-09-20T09:10:07;100429.56;;;27.46
61189;BMP280;47054;39.716;2.904;2022-09-20T09:12:53;100428.78;;;27.46
61189;BMP280;47054;39.716;2.904;2022-09-20T09:15:39;100433.81;;;27.47
61189;BMP280;47054;39.716;2.904;2022-09-20T09:18:34;100427.69;;;27.43
61189;BMP280;47054;39.716;2.904;2022-09-20T09:21:22;100433.03;;;27.47
61189;BMP280;47054;39.716;2.904;2022-09-20T09:24:19;100429.09;;;27.48
61189;BMP280;47054;39.716;2.904;2022-09-20T09:27:14;100418.97;;;27.48
61189;BMP280;47054;39.716;2.904;2022-09-20T09:29:59;100428.03;;;27.45
61189;BMP280;47054;39.716;2.904;2022-09-20T09:32:44;100423.34;;;27.46
61189;BMP280;47054;39.716;2.904;2022-09-20T09:35:29;100433.03;;;27.47
61189;BMP280;47054;39.716;2.904;2022-09-20T09:38:18;100430.31;;;27.47
61189;BMP280;47054;39.716;2.904;2022-09-20T09:41:28;100433.81;;;27.47
61189;BMP280;47054;39.716;2.904;2022-09-20T09:44:19;100435.75;;;27.47
61189;BMP280;47054;39.716;2.904;2022-09-20T09:47:26;100431.09;;;27.47
61189;BMP280;47054;39.716;2.904;2022-09-20T09:50:24;100433.03;;;27.47
61189;BMP280;47054;39.716;2.904;2022-09-20T09:53:31;100442.41;;;27.46
61189;BMP280;47054;39.716;2.904;2022-09-20T09:59:40;100436.97;;;27.46
61189;BMP280;47054;39.716;2.904;2022-09-20T10:14:48;100428.03;;;27.45
61189;BMP280;47054;39.716;2.904;2022-09-20T10:17:49;100422.25;;;27.43
61189;BMP280;47054;39.716;2.904;2022-09-20T10:29:53;100425.31;;;27.45
61189;BMP280;47054;39.716;2.904;2022-09-20T10:39:22;100409.41;;;27.44
61189;BMP280;47054;39.716;2.904;2022-09-20T10:45:42;100405.91;;;27.43
61189;BMP280;47054;39.716;2.904;2022-09-20T10:48:37;100406.78;;;27.40
61189;BMP280;47054;39.716;2.904;2022-09-20T10:51:30;100411.78;;;27.42
61189;BMP280;47054;39.716;2.904;2022-09-20T11:00:44;100416.50;;;27.41
61189;BMP280;47054;39.716;2.904;2022-09-20T11:09:21;100415.81;;;27.37
61189;BMP280;47054;39.716;2.904;2022-09-20T11:15:13;100402.53;;;27.39
61189;BMP280;47054;39.716;2.904;2022-09-20T11:21:23;100404.81;;;27.41
61189;BMP280;47054;39.716;2.904;2022-09-20T11:27:13;100399.72;;;27.43
61189;BMP280;47054;39.716;2.904;2022-09-20T11:30:24;100394.25;;;27.43
61189;BMP280;47054;39.716;2.904;2022-09-20T11:36:05;100402.44;;;27.43
61189;BMP280;47054;39.716;2.904;2022-09-20T11:38:59;100405.47;;;27.45
61189;BMP280;47054;39.716;2.904;2022-09-20T11:41:48;100411.34;;;27.43
61189;BMP280;47054;39.716;2.904;2022-09-20T11:44:38;100410.91;;;27.45
61189;BMP280;47054;39.716;2.904;2022-09-20T11:57:03;100397.00;;;27.43
61189;BMP280;47054;39.716;2.904;2022-09-20T11:59:52;100395.34;;;27.45
61189;BMP280;47054;39.716;2.904;2022-09-20T12:02:50;100400.34;;;27.47
61189;BMP280;47054;39.716;2.904;2022-09-20T12:05:38;100403.84;;;27.47
61189;BMP280;47054;39.716;2.904;2022-09-20T12:08:33;100386.72;;;27.47
61189;BMP280;47054;39.716;2.904;2022-09-20T12:11:33;100391.75;;;27.48
61189;BMP280;47054;39.716;2.904;2022-09-20T12:14:27;100388.25;;;27.48
61189;BMP280;47054;39.716;2.904;2022-09-20T12:26:40;100394.47;;;27.48
61189;BMP280;47054;39.716;2.904;2022-09-20T12:32:44;100383.16;;;27.50
61189;BMP280;47054;39.716;2.904;2022-09-20T12:41:13;100373.00;;;27.50
61189;BMP280;47054;39.716;2.904;2022-09-20T12:44:02;100366.81;;;27.50
61189;BMP280;47054;39.716;2.904;2022-09-20T12:49:56;100362.84;;;27.51
61189;BMP280;47054;39.716;2.904;2022-09-20T12:53:01;100357.41;;;27.51
61189;BMP280;47054;39.716;2.904;2022-09-20T12:55:53;100371.50;;;27.49
61189;BMP280;47054;39.716;2.904;2022-09-20T12:58:50;100355.94;;;27.50
61189;BMP280;47054;39.716;2.904;2022-09-20T13:01:38;100353.19;;;27.50
61189;BMP280;47054;39.716;2.904;2022-09-20T13:04:49;100353.41;;;27.55
61189;BMP280;47054;39.716;2.904;2022-09-20T13:07:42;100340.09;;;27.45
61189;BMP280;47054;39.716;2.904;2022-09-20T13:10:33;100359.28;;;27.54
61189;BMP280;47054;39.716;2.904;2022-09-20T13:13:29;100356.13;;;27.55
61189;BMP280;47054;39.716;2.904;2022-09-20T13:16:26;100352.22;;;27.56
61189;BMP280;47054;39.716;2.904;2022-09-20T13:24:46;100355.34;;;27.55
61189;BMP280;47054;39.716;2.904;2022-09-20T13:27:36;100360.38;;;27.56
61189;BMP280;47054;39.716;2.904;2022-09-20T13:30:24;100346.78;;;27.56
61189;BMP280;47054;39.716;2.904;2022-09-20T13:33:21;100349.78;;;27.58
61189;BMP280;47054;39.716;2.904;2022-09-20T13:36:06;100345.53;;;27.57
61189;BMP280;47054;39.716;2.904;2022-09-20T13:38:52;100345.53;;;27.57
61189;BMP280;47054;39.716;2.904;2022-09-20T13:41:37;100350.56;;;27.59
61189;BMP280;47054;39.716;2.904;2022-09-20T13:44:22;100349.78;;;27.58
61189;BMP280;47054;39.716;2.904;2022-09-20T13:47:21;100352.41;;;27.62
61189;BMP280;47054;39.716;2.904;2022-09-20T13:53:16;100369.19;;;27.60
61189;BMP280;47054;39.716;2.904;2022-09-20T13:56:10;100361.34;;;27.63
61189;BMP280;47054;39.716;2.904;2022-09-20T13:59:03;100361.34;;;27.63
61189;BMP280;47054;39.716;2.904;2022-09-20T14:01:50;100348.91;;;27.61
61189;BMP280;47054;39.716;2.904;2022-09-20T14:04:37;100351.66;;;27.61
61189;BMP280;47054;39.716;2.904;2022-09-20T14:07:23;100352.41;;;27.62
61189;BMP280;47054;39.716;2.904;2022-09-20T14:10:30;100350.75;;;27.64
61189;BMP280;47054;39.716;2.904;2022-09-20T14:13:15;100360.59;;;27.62
61189;BMP280;47054;39.716;2.904;2022-09-20T14:16:01;100351.22;;;27.63
61189;BMP280;47054;39.716;2.904;2022-09-20T14:18:47;100344.56;;;27.64
61189;BMP280;47054;39.716;2.904;2022-09-20T14:21:32;100350.75;;;27.64
61189;BMP280;47054;39.716;2.904;2022-09-20T14:24:26;100341.41;;;27.66
61189;BMP280;47054;39.716;2.904;2022-09-20T14:27:21;100347.16;;;27.67
61189;BMP280;47054;39.716;2.904;2022-09-20T14:30:35;100328.09;;;27.67
61189;BMP280;47054;39.716;2.904;2022-09-20T14:33:20;100339.88;;;27.64
61189;BMP280;47054;39.716;2.904;2022-09-20T14:36:11;100334.75;;;27.67
61189;BMP280;47054;39.716;2.904;2022-09-20T14:39:00;100346.84;;;27.66
61189;BMP280;47054;39.716;2.904;2022-09-20T14:41:46;100337.47;;;27.67
61189;BMP280;47054;39.716;2.904;2022-09-20T14:44:32;100340.19;;;27.67
61189;BMP280;47054;39.716;2.904;2022-09-20T14:47:28;100347.50;;;27.70
61189;BMP280;47054;39.716;2.904;2022-09-20T15:04:57;100355.66;;;27.70
61189;BMP280;47054;39.716;2.904;2022-09-20T15:07:43;100354.47;;;27.71
61189;BMP280;47054;39.716;2.904;2022-09-20T15:10:29;100348.25;;;27.70
61189;BMP280;47054;39.716;2.904;2022-09-20T15:13:13;100353.72;;;27.70
61189;BMP280;47054;39.716;2.904;2022-09-20T15:15:59;100351.00;;;27.70
61189;BMP280;47054;39.716;2.904;2022-09-20T15:18:43;100351.00;;;27.70
61189;BMP280;47054;39.716;2.904;2022-09-20T15:21:28;100347.38;;;27.73
61189;BMP280;47054;39.716;2.904;2022-09-20T15:24:13;100346.59;;;27.73
61189;BMP280;47054;39.716;2.904;2022-09-20T15:27:00;100350.44;;;27.75
61189;BMP280;47054;39.716;2.904;2022-09-20T15:32:30;100355.44;;;27.77
61189;BMP280;47054;39.716;2.904;2022-09-20T15:35:15;100353.91;;;27.76
61189;BMP280;47054;39.716;2.904;2022-09-20T15:37:59;100350.78;;;27.77
61189;BMP280;47054;39.716;2.904;2022-09-20T15:40:46;100353.50;;;27.77
61189;BMP280;47054;39.716;2.904;2022-09-20T15:43:31;100357.00;;;27.78
61189;BMP280;47054;39.716;2.904;2022-09-20T15:46:22;100355.00;;;27.78
61189;BMP280;47054;39.716;2.904;2022-09-20T15:49:10;100345.63;;;27.79
61189;BMP280;47054;39.716;2.904;2022-09-20T15:51:54;100346.84;;;27.78
61189;BMP280;47054;39.716;2.904;2022-09-20T15:54:39;100347.16;;;27.80
61189;BMP280;47054;39.716;2.904;2022-09-20T15:57:24;100360.78;;;27.80
61189;BMP280;47054;39.716;2.904;2022-09-20T16:00:10;100355.34;;;27.80
61189;BMP280;47054;39.716;2.904;2022-09-20T16:02:54;100365.75;;;27.82
61189;BMP280;47054;39.716;2.904;2022-09-20T16:05:39;100356.88;;;27.81
61189;BMP280;47054;39.716;2.904;2022-09-20T16:08:23;100368.06;;;27.83
61189;BMP280;47054;39.716;2.904;2022-09-20T16:11:11;100364.94;;;27.85
61189;BMP280;47054;39.716;2.904;2022-09-20T16:13:57;100361.84;;;27.83
61189;BMP280;47054;39.716;2.904;2022-09-20T16:16:42;100377.03;;;27.84
61189;BMP280;47054;39.716;2.904;2022-09-20T16:19:27;100373.84;;;27.85
61189;BMP280;47054;39.716;2.904;2022-09-20T16:22:13;100378.09;;;27.86
61189;BMP280;47054;39.716;2.904;2022-09-20T16:24:57;100389.00;;;27.86
61189;BMP280;47054;39.716;2.904;2022-09-20T16:27:44;100383.53;;;27.86
61189;BMP280;47054;39.716;2.904;2022-09-20T16:30:28;100391.31;;;27.88
61189;BMP280;47054;39.716;2.904;2022-09-20T16:33:13;100389.34;;;27.88
61189;BMP280;47054;39.716;2.904;2022-09-20T16:35:58;100386.59;;;27.88
61189;BMP280;47054;39.716;2.904;2022-09-20T16:38:43;100394.34;;;27.90
61189;BMP280;47054;39.716;2.904;2022-09-20T16:41:28;100397.06;;;27.90
61189;BMP280;47054;39.716;2.904;2022-09-20T16:44:15;100399.78;;;27.90
61189;BMP280;47054;39.716;2.904;2022-09-20T16:46:59;100399.34;;;27.91
61189;BMP280;47054;39.716;2.904;2022-09-20T16:49:44;100393.47;;;27.93
61189;BMP280;47054;39.716;2.904;2022-09-20T16:52:30;100395.41;;;27.92
61189;BMP280;47054;39.716;2.904;2022-09-20T16:55:15;100398.13;;;27.92
61189;BMP280;47054;39.716;2.904;2022-09-20T16:58:01;100400.47;;;27.94
61189;BMP280;47054;39.716;2.904;2022-09-20T17:00:45;100395.00;;;27.94
61189;BMP280;47054;39.716;2.904;2022-09-20T17:03:30;100391.50;;;27.93
61189;BMP280;47054;39.716;2.904;2022-09-20T17:06:15;100391.06;;;27.95
61189;BMP280;47054;39.716;2.904;2022-09-20T17:09:00;100398.03;;;27.96
61189;BMP280;47054;39.716;2.904;2022-09-20T17:11:47;100396.84;;;27.97
61189;BMP280;47054;39.716;2.904;2022-09-20T17:14:33;100400.75;;;27.96
61189;BMP280;47054;39.716;2.904;2022-09-20T17:17:17;100394.13;;;27.97
61189;BMP280;47054;39.716;2.904;2022-09-20T17:20:06;100389.41;;;27.97
61189;BMP280;47054;39.716;2.904;2022-09-20T17:22:51;100390.94;;;27.98
61189;BMP280;47054;39.716;2.904;2022-09-20T17:25:38;100399.88;;;27.99
61189;BMP280;47054;39.716;2.904;2022-09-20T17:28:25;100402.59;;;27.99
61189;BMP280;47054;39.716;2.904;2022-09-20T17:31:15;100403.69;;;28.01
61189;BMP280;47054;39.716;2.904;2022-09-20T17:34:01;100385.41;;;27.89
61189;BMP280;47054;39.716;2.904;2022-09-20T17:36:48;100398.81;;;27.96
61189;BMP280;47054;39.716;2.904;2022-09-20T17:39:33;100406.44;;;28.01
61189;BMP280;47054;39.716;2.904;2022-09-20T17:42:18;100411.44;;;28.03
61189;BMP280;47054;39.716;2.904;2022-09-20T17:45:04;100410.66;;;28.02
61189;BMP280;47054;39.716;2.904;2022-09-20T17:47:48;100410.22;;;28.04
61189;BMP280;47054;39.716;2.904;2022-09-20T17:50:33;100402.81;;;28.04
61189;BMP280;47054;39.716;2.904;2022-09-20T17:53:17;100400.88;;;28.05
61189;BMP280;47054;39.716;2.904;2022-09-20T17:56:03;100405.84;;;28.06
61189;BMP280;47054;39.716;2.904;2022-09-20T17:58:47;100391.81;;;28.08
61189;BMP280;47054;39.716;2.904;2022-09-20T18:01:33;100376.22;;;28.08
61189;BMP280;47054;39.716;2.904;2022-09-20T18:04:18;100379.25;;;28.10
61189;BMP280;47054;39.716;2.904;2022-09-20T18:07:04;100392.09;;;28.10
61189;BMP280;47054;39.716;2.904;2022-09-20T18:09:49;100382.75;;;28.11
61189;BMP280;47054;39.716;2.904;2022-09-20T18:12:34;100387.00;;;28.12
61189;BMP280;47054;39.716;2.904;2022-09-20T18:15:18;100379.56;;;28.12
61189;BMP280;47054;39.716;2.904;2022-09-20T18:18:03;100378.84;;;28.12
61189;BMP280;47054;39.716;2.904;2022-09-20T18:20:48;100380.31;;;28.13
61189;BMP280;47054;39.716;2.904;2022-09-20T18:23:32;100381.09;;;28.13
61189;BMP280;47054;39.716;2.904;2022-09-20T18:26:25;100378.69;;;28.15
61189;BMP280;47054;39.716;2.904;2022-09-20T18:29:15;100384.91;;;28.16
61189;BMP280;47054;39.716;2.904;2022-09-20T18:32:01;100390.03;;;28.14
61189;BMP280;47054;39.716;2.904;2022-09-20T18:34:46;100385.34;;;28.14
61189;BMP280;47054;39.716;2.904;2022-09-20T18:37:34;100390.38;;;28.16
61189;BMP280;47054;39.716;2.904;2022-09-20T18:40:20;100399.28;;;28.16
61189;BMP280;47054;39.716;2.904;2022-09-20T18:43:06;100404.75;;;28.16
61189;BMP280;47054;39.716;2.904;2022-09-20T18:45:51;100397.78;;;28.15
61189;BMP280;47054;39.716;2.904;2022-09-20T18:48:40;100416.75;;;28.19
61189;BMP280;47054;39.716;2.904;2022-09-20T18:51:25;100404.31;;;28.18
61189;BMP280;47054;39.716;2.904;2022-09-20T18:54:12;100407.78;;;28.18
61189;BMP280;47054;39.716;2.904;2022-09-20T18:56:56;100406.59;;;28.19
61189;BMP280;47054;39.716;2.904;2022-09-20T18:59:41;100420.53;;;28.21
61189;BMP280;47054;39.716;2.904;2022-09-20T19:02:52;100432.56;;;28.24
61189;BMP280;47054;39.716;2.904;2022-09-20T19:05:43;100431.00;;;28.23
61189;BMP280;47054;39.716;2.904;2022-09-20T19:08:34;100439.19;;;28.23
61189;BMP280;47054;39.716;2.904;2022-09-20T19:11:42;100434.84;;;28.25
61189;BMP280;47054;39.716;2.904;2022-09-20T19:20:48;100440.28;;;28.25
61189;BMP280;47054;39.716;2.904;2022-09-20T19:26:43;100446.19;;;28.24
61189;BMP280;47054;39.716;2.904;2022-09-20T19:29:28;100452.38;;;28.24
61189;BMP280;47054;39.716;2.904;2022-09-20T19:32:16;100460.91;;;28.26
61189;BMP280;47054;39.716;2.904;2022-09-20T19:35:04;100460.91;;;28.26
61189;BMP280;47054;39.716;2.904;2022-09-20T19:44:03;100475.63;;;28.29
61189;BMP280;47054;39.716;2.904;2022-09-20T19:49:51;100478.66;;;28.31
61189;BMP280;47054;39.716;2.904;2022-09-20T19:52:36;100470.94;;;28.29
61189;BMP280;47054;39.716;2.904;2022-09-20T19:55:23;100476.41;;;28.29
61189;BMP280;47054;39.716;2.904;2022-09-20T19:58:08;100473.69;;;28.29
61189;BMP280;47054;39.716;2.904;2022-09-20T20:00:53;100473.31;;;28.27
61189;BMP280;47054;39.716;2.904;2022-09-20T20:03:38;100470.06;;;28.32
61189;BMP280;47054;39.716;2.904;2022-09-20T20:06:27;100481.75;;;28.33
61189;BMP280;47054;39.716;2.904;2022-09-20T20:12:43;100480.97;;;28.32
61189;BMP280;47054;39.716;2.904;2022-09-20T20:15:49;100480.97;;;28.32
61189;BMP280;47054;39.716;2.904;2022-09-20T20:21:53;100484.00;;;28.34
61189;BMP280;47054;39.716;2.904;2022-09-20T20:24:51;100480.50;;;28.34
61189;BMP280;47054;39.716;2.904;2022-09-20T20:27:36;100493.06;;;28.31
61189;BMP280;47054;39.716;2.904;2022-09-20T20:30:21;100491.88;;;28.32
61189;BMP280;47054;39.716;2.904;2022-09-20T20:33:06;100490.66;;;28.33
61189;BMP280;47054;39.716;2.904;2022-09-20T20:35:55;100494.50;;;28.36
61189;BMP280;47054;39.716;2.904;2022-09-20T20:38:41;100493.06;;;28.31
61189;BMP280;47054;39.716;2.904;2022-09-20T20:41:29;100506.59;;;28.35
61189;BMP280;47054;39.716;2.904;2022-09-20T20:44:15;100509.31;;;28.35
61189;BMP280;47054;39.716;2.904;2022-09-20T20:47:00;100508.13;;;28.36
61189;BMP280;47054;39.716;2.904;2022-09-20T20:49:45;100501.44;;;28.37
61189;BMP280;47054;39.716;2.904;2022-09-20T20:52:29;100494.16;;;28.34
61189;BMP280;47054;39.716;2.904;2022-09-20T20:55:14;100497.53;;;28.38
61189;BMP280;47054;39.716;2.904;2022-09-20T20:57:59;100497.53;;;28.38
61189;BMP280;47054;39.716;2.904;2022-09-20T21:00:43;100494.50;;;28.36
61189;BMP280;47054;39.716;2.904;2022-09-20T21:03:28;100496.75;;;28.37
61189;BMP280;47054;39.716;2.904;2022-09-20T21:06:14;100498.31;;;28.38
61189;BMP280;47054;39.716;2.904;2022-09-20T21:08:58;100494.03;;;28.37
61189;BMP280;47054;39.716;2.904;2022-09-20T21:11:43;100494.81;;;28.38
61189;BMP280;47054;39.716;2.904;2022-09-20T21:14:29;100491.31;;;28.37
61189;BMP280;47054;39.716;2.904;2022-09-20T21:17:16;100496.75;;;28.37
61189;BMP280;47054;39.716;2.904;2022-09-20T21:20:01;100493.63;;;28.39